Time;durP1;ratioP1;P1;durP2;ratioP2;P2;SDS_P1;SDS_P2;PMS_P1;PMS_P2;Temp;Humidity;BMP_temperature;BMP_pressure;BME280_temperature;BME280_humidity;BME280_pressure;Samples;Min_cycle;Max_cycle;Signal;HPM_P1;HPM_P2
2022/09/01 00:02:14;;;;;;;6.60;5.50;;;16.20;99.90;;;;;;5051540;28;20209;-67
2022/09/01 00:04:43;;;;;;;6.17;5.77;;;16.20;99.90;;;;;;5049868;28;20202;-66
2022/09/01 00:07:09;;;;;;;5.83;5.50;;;16.10;99.90;;;;;;5051525;28;20253;-66
2022/09/01 00:09:35;;;;;;;5.37;5.07;;;16.10;99.90;;;;;;5050299;28;20224;-66
2022/09/01 00:12:02;;;;;;;6.07;5.57;;;16.10;99.90;;;;;;5051524;28;20178;-67
2022/09/01 00:14:31;;;;;;;5.87;5.47;;;16.10;99.90;;;;;;5049727;28;20664;-66
2022/09/01 00:16:59;;;;;;;5.67;5.27;;;16.00;99.90;;;;;;5051310;28;20182;-67
2022/09/01 00:19:26;;;;;;;6.17;5.70;;;15.90;99.90;;;;;;5051498;28;20183;-67
2022/09/01 00:21:52;;;;;;;6.37;6.03;;;16.00;99.90;;;;;;5051369;28;20655;-67
2022/09/01 00:24:18;;;;;;;6.43;6.03;;;16.00;99.90;;;;;;5051031;28;20663;-67
2022/09/01 00:26:44;;;;;;;7.10;6.70;;;15.90;99.90;;;;;;5051366;28;20175;-66
2022/09/01 00:29:10;;;;;;;7.27;6.87;;;15.90;99.90;;;;;;5051775;28;20659;-66
2022/09/01 00:31:36;;;;;;;7.37;6.77;;;15.80;99.90;;;;;;5051506;28;20182;-67
2022/09/01 00:34:02;;;;;;;7.70;7.30;;;15.80;99.90;;;;;;5050581;28;20596;-65
2022/09/01 00:36:28;;;;;;;8.57;7.80;;;15.80;99.90;;;;;;5051224;28;20179;-67
2022/09/01 00:38:54;;;;;;;6.83;6.43;;;15.80;99.90;;;;;;5051250;28;20187;-66
2022/09/01 00:41:23;;;;;;;5.97;5.57;;;15.80;99.90;;;;;;5049977;28;20290;-67
2022/09/01 00:43:50;;;;;;;6.27;5.67;;;15.90;99.90;;;;;;5050904;28;20667;-66
2022/09/01 00:46:22;;;;;;;6.17;5.70;;;15.90;99.90;;;;;;5051029;28;20214;-66
2022/09/01 00:48:54;;;;;;;6.23;5.90;;;16.10;99.90;;;;;;5051342;28;20185;-67
2022/09/01 00:51:20;;;;;;;5.47;5.17;;;16.00;99.90;;;;;;5051241;28;20175;-67
2022/09/01 00:53:47;;;;;;;6.77;6.37;;;16.00;99.90;;;;;;5050789;28;20671;-67
2022/09/01 00:56:13;;;;;;;8.20;6.60;;;16.00;99.90;;;;;;5051045;28;20229;-67
2022/09/01 00:58:39;;;;;;;5.50;5.20;;;15.90;99.90;;;;;;5051177;28;20183;-66
2022/09/01 01:01:09;;;;;;;5.90;5.50;;;15.90;99.90;;;;;;5050850;28;20202;-67
2022/09/01 01:03:35;;;;;;;10.00;5.97;;;15.80;99.90;;;;;;5051012;28;20178;-66
2022/09/01 01:06:07;;;;;;;5.80;5.40;;;15.80;99.90;;;;;;5049574;28;20205;-66
2022/09/01 01:08:39;;;;;;;6.97;6.57;;;15.70;99.90;;;;;;5050992;28;20631;-67
2022/09/01 01:11:10;;;;;;;7.17;6.67;;;15.70;99.90;;;;;;5050700;28;20232;-67
2022/09/01 01:13:57;;;;;;;6.70;6.10;;;15.70;99.90;;;;;;5050996;28;20174;-66
2022/09/01 01:16:25;;;;;;;7.27;6.67;;;15.60;99.90;;;;;;5050679;28;20241;-67
2022/09/01 01:18:52;;;;;;;6.73;6.33;;;15.70;99.90;;;;;;5049799;28;20549;-66
2022/09/01 01:24:33;;;;;;;6.33;5.93;;;15.60;99.90;;;;;;5050894;28;20647;-67
2022/09/01 01:26:59;;;;;;;6.37;5.97;;;15.50;99.90;;;;;;5049536;28;20645;-66
2022/09/01 01:29:32;;;;;;;6.70;6.20;;;15.50;99.90;;;;;;5050931;28;20594;-67
2022/09/01 01:31:59;;;;;;;7.40;6.97;;;15.40;99.90;;;;;;5050704;28;20223;-66
2022/09/01 01:34:25;;;;;;;6.73;6.30;;;15.40;99.90;;;;;;5050489;28;20676;-66
2022/09/01 01:36:51;;;;;;;6.37;5.97;;;15.40;99.90;;;;;;5050932;28;20183;-66
2022/09/01 01:39:24;;;;;;;7.43;6.83;;;15.40;99.90;;;;;;5050886;28;20171;-67
2022/09/01 01:41:51;;;;;;;6.37;5.97;;;15.30;99.90;;;;;;5050634;28;20202;-67
2022/09/01 01:44:21;;;;;;;6.30;5.80;;;15.30;99.90;;;;;;5049920;28;20266;-67
2022/09/01 01:46:49;;;;;;;5.77;5.33;;;15.30;99.90;;;;;;5054427;28;20297;-66
2022/09/01 01:49:18;;;;;;;7.33;6.73;;;15.20;99.90;;;;;;5053922;28;20266;-66
2022/09/01 01:51:46;;;;;;;6.10;5.60;;;15.20;99.90;;;;;;5054320;28;20310;-66
2022/09/01 01:54:13;;;;;;;6.27;5.87;;;15.20;99.90;;;;;;5053540;28;20182;-67
2022/09/01 01:56:40;;;;;;;5.50;5.20;;;15.10;99.90;;;;;;5054277;28;20185;-66
2022/09/01 01:59:09;;;;;;;6.10;5.80;;;15.20;99.90;;;;;;5053899;28;20544;-67
2022/09/01 02:01:35;;;;;;;7.00;6.50;;;15.20;99.90;;;;;;5054088;28;20206;-67
2022/09/01 02:04:03;;;;;;;6.90;6.50;;;15.30;99.90;;;;;;5053490;28;20548;-66
2022/09/01 02:06:33;;;;;;;7.10;6.60;;;15.30;99.90;;;;;;5053728;28;20171;-67
2022/09/01 02:09:02;;;;;;;7.20;6.70;;;15.20;99.90;;;;;;5052784;28;20182;-66
2022/09/01 02:11:32;;;;;;;7.23;6.73;;;15.20;99.90;;;;;;5052276;28;20256;-66
2022/09/01 02:13:57;;;;;;;5.93;5.63;;;15.10;99.90;;;;;;5053661;28;20174;-67
2022/09/01 02:16:25;;;;;;;7.13;6.63;;;15.10;99.90;;;;;;5053241;28;20210;-66
2022/09/01 02:18:52;;;;;;;6.73;6.23;;;15.00;99.90;;;;;;5053845;28;20185;-66
2022/09/01 02:21:20;;;;;;;6.93;6.53;;;14.90;99.90;;;;;;5053281;28;20273;-66
2022/09/01 02:24:00;;;;;;;6.80;6.40;;;14.90;99.90;;;;;;5053507;28;20656;-66
2022/09/01 02:26:31;;;;;;;7.03;6.47;;;14.80;99.90;;;;;;5053137;28;20256;-65
2022/09/01 02:29:03;;;;;;;6.77;6.37;;;14.80;99.90;;;;;;5053656;28;20272;-67
2022/09/01 02:31:30;;;;;;;7.53;7.03;;;14.70;99.90;;;;;;5053319;28;20183;-67
2022/09/01 02:33:57;;;;;;;7.20;6.70;;;14.70;99.90;;;;;;5053231;28;20652;-66
2022/09/01 02:36:24;;;;;;;7.00;6.50;;;14.60;99.90;;;;;;5051621;28;20591;-67
2022/09/01 02:38:50;;;;;;;6.90;6.50;;;14.60;99.90;;;;;;5053550;28;20286;-66
2022/09/01 02:41:21;;;;;;;7.00;6.53;;;14.60;99.90;;;;;;5052849;28;20206;-66
2022/09/01 02:43:47;;;;;;;7.30;6.80;;;14.50;99.90;;;;;;5053102;28;20253;-66
2022/09/01 02:46:14;;;;;;;6.57;6.07;;;14.50;99.90;;;;;;5052827;28;20265;-67
2022/09/01 02:48:44;;;;;;;6.63;6.13;;;14.50;99.90;;;;;;5053300;28;20179;-67
2022/09/01 02:51:15;;;;;;;7.50;6.90;;;14.50;99.90;;;;;;5052703;28;20180;-66
2022/09/01 02:53:43;;;;;;;7.10;6.60;;;14.50;99.90;;;;;;5051729;28;20289;-66
2022/09/01 02:56:14;;;;;;;7.13;6.63;;;14.50;99.90;;;;;;5052577;28;20230;-66
2022/09/01 02:58:45;;;;;;;7.67;7.10;;;14.50;99.90;;;;;;5052849;28;20201;-66
2022/09/01 03:01:23;;;;;;;7.40;6.80;;;14.50;99.90;;;;;;5052558;28;20207;-67
2022/09/01 03:03:50;;;;;;;7.30;6.70;;;14.40;99.90;;;;;;5052677;28;20178;-66
2022/09/01 03:06:22;;;;;;;7.13;6.70;;;14.50;99.90;;;;;;5052177;28;20202;-65
2022/09/01 03:08:53;;;;;;;7.63;6.93;;;14.50;99.90;;;;;;5052811;28;20174;-66
2022/09/01 03:11:19;;;;;;;7.57;6.97;;;14.50;99.90;;;;;;5052439;28;20193;-66
2022/09/01 03:13:45;;;;;;;8.13;7.63;;;14.50;99.90;;;;;;5052549;28;20183;-67
2022/09/01 03:16:11;;;;;;;8.20;7.70;;;14.50;99.90;;;;;;5033121;28;20253;-66
2022/09/01 03:18:38;;;;;;;7.87;7.33;;;14.50;99.90;;;;;;5049652;28;20194;-66
2022/09/01 03:21:05;;;;;;;10.93;7.80;;;14.50;99.90;;;;;;5052250;28;20213;-66
2022/09/01 03:23:32;;;;;;;7.40;6.83;;;14.60;99.90;;;;;;5051964;28;20260;-66
2022/09/01 03:25:58;;;;;;;7.20;6.70;;;14.60;99.90;;;;;;5052575;28;20233;-67
2022/09/01 03:28:24;;;;;;;6.53;6.13;;;14.70;99.90;;;;;;5051985;28;20171;-66
2022/09/01 03:30:52;;;;;;;7.07;6.53;;;14.70;99.90;;;;;;5052517;28;20174;-67
2022/09/01 03:33:20;;;;;;;6.97;6.40;;;14.80;99.90;;;;;;5051994;28;20225;-67
2022/09/01 03:35:46;;;;;;;6.57;6.07;;;14.80;99.90;;;;;;5050763;28;20211;-66
2022/09/01 03:38:20;;;;;;;6.43;5.97;;;14.80;99.90;;;;;;5051974;28;20190;-66
2022/09/01 03:40:48;;;;;;;6.77;6.27;;;14.90;99.90;;;;;;5051775;28;20240;-66
2022/09/01 03:43:15;;;;;;;7.53;7.00;;;14.90;99.90;;;;;;5051784;28;20181;-66
2022/09/01 03:45:42;;;;;;;7.23;6.73;;;14.90;99.90;;;;;;5051832;28;20191;-66
2022/09/01 03:48:08;;;;;;;6.93;6.53;;;14.90;99.90;;;;;;5051966;28;20253;-66
2022/09/01 03:50:45;;;;;;;7.53;6.93;;;14.90;99.90;;;;;;5051938;28;20171;-67
2022/09/01 03:53:17;;;;;;;7.80;7.20;;;14.80;99.90;;;;;;5051757;28;20182;-67
2022/09/01 03:55:45;;;;;;;7.60;6.80;;;14.80;99.90;;;;;;5051617;28;20243;-66
2022/09/01 03:58:13;;;;;;;6.43;6.00;;;14.70;99.90;;;;;;5051642;28;20570;-66
2022/09/01 04:00:42;;;;;;;6.90;6.27;;;14.70;99.90;;;;;;5051754;28;20175;-67
2022/09/01 04:03:11;;;;;;;7.80;7.20;;;14.60;99.90;;;;;;5051581;28;20661;-67
2022/09/01 04:05:39;;;;;;;7.83;7.33;;;14.50;99.90;;;;;;5050177;28;20195;-66
2022/09/01 04:08:09;;;;;;;6.57;6.00;;;14.50;99.90;;;;;;5051201;28;20182;-66
2022/09/01 04:10:45;;;;;;;7.13;6.63;;;14.40;99.90;;;;;;5051643;28;20179;-67
2022/09/01 04:13:11;;;;;;;7.57;6.87;;;14.30;99.90;;;;;;5051726;28;20192;-66
2022/09/01 04:15:37;;;;;;;7.50;6.63;;;14.30;99.90;;;;;;5051125;28;20277;-66
2022/09/01 04:18:09;;;;;;;6.70;6.30;;;14.20;99.90;;;;;;5051700;28;20178;-66
2022/09/01 04:20:48;;;;;;;7.10;6.60;;;14.10;99.90;;;;;;5051184;28;20182;-66
2022/09/01 04:23:15;;;;;;;8.77;7.97;;;14.10;99.90;;;;;;5051653;28;20516;-67
2022/09/01 04:25:41;;;;;;;8.03;6.97;;;14.00;99.90;;;;;;5050999;28;20202;-66
2022/09/01 04:28:13;;;;;;;7.07;6.57;;;14.00;99.90;;;;;;5051543;28;20182;-66
2022/09/01 04:30:42;;;;;;;8.03;7.33;;;14.00;99.90;;;;;;5051215;28;20936;-66
2022/09/01 04:33:09;;;;;;;7.60;6.97;;;14.00;99.90;;;;;;5051573;28;20175;-66
2022/09/01 04:35:39;;;;;;;6.83;6.20;;;13.90;99.90;;;;;;5063809;22;20223;-65
2022/09/01 04:38:07;;;;;;;7.23;6.73;;;13.90;99.90;;;;;;5031535;28;20190;-65
2022/09/01 04:40:37;;;;;;;6.57;6.07;;;13.80;99.90;;;;;;5031281;28;20171;-65
2022/09/01 04:43:04;;;;;;;7.10;6.63;;;13.90;99.90;;;;;;5011577;28;20204;-65
2022/09/01 04:45:31;;;;;;;7.53;7.03;;;13.90;99.90;;;;;;5011466;28;20576;-64
2022/09/01 04:47:59;;;;;;;6.77;6.27;;;13.80;99.90;;;;;;5030750;28;20171;-66
2022/09/01 04:50:29;;;;;;;7.27;6.80;;;13.80;99.90;;;;;;5031363;28;20183;-64
2022/09/01 04:53:01;;;;;;;9.37;6.27;;;13.80;99.90;;;;;;5031285;28;20176;-64
2022/09/01 04:55:28;;;;;;;7.37;6.77;;;13.70;99.90;;;;;;5031116;28;20200;-64
2022/09/01 04:57:56;;;;;;;9.87;6.90;;;13.70;99.90;;;;;;5031215;28;20182;-66
2022/09/01 05:00:24;;;;;;;7.57;7.07;;;13.60;99.90;;;;;;5031337;28;20731;-65
2022/09/01 05:03:00;;;;;;;7.97;7.27;;;13.60;99.90;;;;;;5031274;28;20207;-66
2022/09/01 05:05:26;;;;;;;7.77;7.17;;;13.60;99.90;;;;;;5030964;28;20233;-65
2022/09/01 05:07:51;;;;;;;7.33;6.80;;;13.70;99.90;;;;;;5031470;28;20171;-65
2022/09/01 05:10:18;;;;;;;7.70;7.10;;;13.70;99.90;;;;;;5030911;28;20718;-67
2022/09/01 05:12:44;;;;;;;10.27;7.80;;;13.80;99.90;;;;;;5031153;28;20178;-65
2022/09/01 05:15:14;;;;;;;7.33;6.83;;;13.80;99.90;;;;;;5030563;28;20227;-65
2022/09/01 05:17:40;;;;;;;7.57;6.87;;;13.80;99.90;;;;;;5031233;28;20237;-65
2022/09/01 05:20:06;;;;;;;7.50;6.90;;;13.90;99.90;;;;;;5031670;28;20616;-66
2022/09/01 05:22:32;;;;;;;7.50;6.90;;;14.00;99.90;;;;;;5034839;28;20300;-67
2022/09/01 05:25:10;;;;;;;7.60;6.80;;;14.00;99.90;;;;;;5034326;28;20237;-67
2022/09/01 05:27:38;;;;;;;6.80;6.40;;;14.10;99.90;;;;;;5034987;28;20273;-65
2022/09/01 05:30:07;;;;;;;8.53;6.70;;;14.20;99.90;;;;;;5034390;28;20182;-66
2022/09/01 05:32:36;;;;;;;7.00;6.50;;;14.30;99.90;;;;;;5034701;28;20172;-66
2022/09/01 05:35:07;;;;;;;7.33;6.87;;;14.40;99.90;;;;;;5034160;28;20235;-65
2022/09/01 05:37:39;;;;;;;6.93;6.43;;;14.50;99.90;;;;;;5033511;28;20175;-64
2022/09/01 05:40:08;;;;;;;7.40;6.80;;;14.60;99.90;;;;;;5034228;28;20179;-66
2022/09/01 05:42:34;;;;;;;7.53;7.03;;;14.60;99.90;;;;;;5034363;28;20203;-65
2022/09/01 05:45:00;;;;;;;6.73;6.33;;;14.70;99.90;;;;;;5033930;28;20199;-66
2022/09/01 05:47:27;;;;;;;7.27;6.77;;;14.80;99.90;;;;;;5034733;28;20193;-66
2022/09/01 05:49:54;;;;;;;7.37;6.87;;;14.90;99.90;;;;;;5034295;28;20202;-66
2022/09/01 05:52:23;;;;;;;9.30;6.83;;;15.00;99.90;;;;;;5034602;28;20640;-66
2022/09/01 05:54:50;;;;;;;6.60;6.20;;;15.10;99.90;;;;;;5033665;28;20195;-65
2022/09/01 05:57:18;;;;;;;7.00;6.40;;;15.20;99.90;;;;;;5034221;28;20167;-66
2022/09/01 05:59:45;;;;;;;7.50;7.00;;;15.30;99.90;;;;;;5033135;28;20171;-65
2022/09/01 06:02:11;;;;;;;5.90;5.50;;;15.30;99.90;;;;;;5033154;28;20198;-65
2022/09/01 06:04:42;;;;;;;6.47;5.97;;;15.40;99.90;;;;;;5033094;28;20194;-65
2022/09/01 06:07:50;;;;;;;8.50;6.00;;;15.50;99.90;;;;;;5030719;28;20641;-66
2022/09/01 06:10:40;;;;;;;8.23;7.70;;;15.60;99.90;;;;;;5033588;28;20179;-66
2022/09/01 06:13:23;;;;;;;6.63;6.03;;;15.80;99.90;;;;;;5034071;28;20171;-65
2022/09/01 06:15:59;;;;;;;6.30;5.90;;;16.00;99.90;;;;;;5033400;28;20199;-64
2022/09/01 06:18:56;;;;;;;;;;;;;;;;;;;;;
2022/09/01 06:21:42;;;;;;;4.97;4.57;;;16.70;99.90;;;;;;5033541;28;20215;-65
2022/09/01 06:24:39;;;;;;;4.67;4.37;;;17.30;99.90;;;;;;5033116;28;20551;-65
2022/09/01 06:27:19;;;;;;;4.30;4.00;;;17.90;99.90;;;;;;5032923;28;20725;-65
2022/09/01 06:30:02;;;;;;;4.37;3.97;;;18.40;99.90;;;;;;5033558;28;20183;-66
2022/09/01 06:32:37;;;;;;;4.20;3.90;;;18.90;99.90;;;;;;5032988;28;20207;-65
2022/09/01 06:35:16;;;;;;;4.50;4.20;;;19.50;99.90;;;;;;5033136;28;20628;-66
2022/09/01 06:37:54;;;;;;;3.83;3.53;;;20.10;99.90;;;;;;5033558;28;20258;-68
2022/09/01 06:40:31;;;;;;;3.80;3.60;;;20.60;99.90;;;;;;5013543;28;20191;-65
2022/09/01 06:43:06;;;;;;;6.18;3.30;;;21.10;99.90;;;;;;5029151;28;20199;-66
2022/09/01 06:45:43;;;;;;;3.92;3.30;;;21.60;99.90;;;;;;5033021;28;20242;-65
2022/09/01 06:48:17;;;;;;;3.60;3.38;;;21.90;99.90;;;;;;5032842;28;20190;-65
2022/09/01 06:50:46;;;;;;;3.50;3.20;;;22.10;99.90;;;;;;5032925;28;20186;-65
2022/09/01 06:53:17;;;;;;;3.25;3.05;;;22.30;99.90;;;;;;5033285;28;20191;-67
2022/09/01 06:55:55;;;;;;;3.55;3.35;;;22.60;99.90;;;;;;5032600;28;20203;-66
2022/09/01 06:58:30;;;;;;;4.47;3.60;;;22.90;99.90;;;;;;5033134;28;20657;-66
2022/09/01 07:01:14;;;;;;;4.07;3.03;;;23.10;99.90;;;;;;5032099;28;20273;-67
2022/09/01 07:03:55;;;;;;;4.32;3.13;;;23.30;99.90;;;;;;5032608;28;20176;-67
2022/09/01 07:06:43;;;;;;;3.17;2.97;;;23.70;99.90;;;;;;5032737;28;20222;-66
2022/09/01 07:09:12;;;;;;;3.90;3.60;;;24.10;99.90;;;;;;5032380;28;20211;-66
2022/09/01 07:11:38;;;;;;;4.38;4.07;;;24.40;99.90;;;;;;5013495;28;20180;-67
2022/09/01 07:14:07;;;;;;;5.35;3.13;;;24.70;99.90;;;;;;5020010;28;20183;-67
2022/09/01 07:16:45;;;;;;;3.40;3.20;;;24.80;99.90;;;;;;5024315;28;20200;-66
2022/09/01 07:19:14;;;;;;;3.25;3.05;;;24.90;99.90;;;;;;5013176;28;20183;-66
2022/09/01 07:21:44;;;;;;;5.70;3.22;;;25.00;99.90;;;;;;5013080;28;20204;-66
2022/09/01 07:24:16;;;;;;;4.90;3.35;;;25.00;99.90;;;;;;5012822;28;20171;-66
2022/09/01 07:26:52;;;;;;;3.60;3.30;;;24.90;99.90;;;;;;5023086;28;20199;-67
2022/09/01 07:29:24;;;;;;;3.63;3.30;;;25.10;99.90;;;;;;5032881;28;20171;-66
2022/09/01 07:31:54;;;;;;;3.65;3.30;;;25.30;99.90;;;;;;5033024;28;20179;-67
2022/09/01 07:34:21;;;;;;;3.00;2.72;;;25.50;99.90;;;;;;5032179;28;20228;-66
2022/09/01 07:36:49;;;;;;;3.35;3.08;;;25.60;99.90;;;;;;5032258;28;20700;-66
2022/09/01 07:39:16;;;;;;;3.85;2.90;;;25.60;99.90;;;;;;5033034;28;20191;-67
2022/09/01 07:41:42;;;;;;;3.88;2.95;;;25.90;99.90;;;;;;5032526;28;20560;-65
2022/09/01 07:44:11;;;;;;;3.67;3.38;;;26.20;99.90;;;;;;5031444;28;20168;-66
2022/09/01 07:46:37;;;;;;;5.43;3.00;;;26.50;99.90;;;;;;5032094;28;20191;-65
2022/09/01 07:49:03;;;;;;;3.05;2.85;;;26.70;99.90;;;;;;5031889;28;20679;-65
2022/09/01 07:51:30;;;;;;;5.07;3.35;;;26.80;99.90;;;;;;5031467;28;20194;-66
2022/09/01 07:53:57;;;;;;;2.90;2.70;;;26.70;99.90;;;;;;5031411;28;20176;-66
2022/09/01 07:56:23;;;;;;;3.58;3.28;;;27.10;99.90;;;;;;5031326;28;20600;-65
2022/09/01 07:58:50;;;;;;;4.38;2.75;;;27.30;99.90;;;;;;5031507;28;20179;-65
2022/09/01 08:01:25;;;;;;;6.05;3.22;;;27.40;99.90;;;;;;5030837;28;20680;-64
2022/09/01 08:04:03;;;;;;;3.00;2.72;;;27.40;99.90;;;;;;5031408;28;20671;-65
2022/09/01 08:06:29;;;;;;;2.75;2.65;;;27.30;99.90;;;;;;5031522;28;20657;-65
2022/09/01 08:08:57;;;;;;;3.50;3.20;;;27.10;99.90;;;;;;5031655;28;20186;-65
2022/09/01 08:11:27;;;;;;;5.10;4.25;;;27.30;99.90;;;;;;5031359;28;20187;-66
2022/09/01 08:13:57;;;;;;;4.00;3.70;;;27.60;99.90;;;;;;5031205;28;20183;-66
2022/09/01 08:16:24;;;;;;;2.88;2.67;;;28.10;99.90;;;;;;5029150;28;20207;-65
2022/09/01 08:18:50;;;;;;;2.33;2.22;;;28.70;99.90;;;;;;5031193;28;20179;-65
2022/09/01 08:21:18;;;;;;;2.90;2.60;;;29.00;99.90;;;;;;5031390;28;20290;-65
2022/09/01 08:23:44;;;;;;;2.55;2.35;;;29.00;99.90;;;;;;5030420;28;20198;-65
2022/09/01 08:26:14;;;;;;;2.63;2.42;;;29.00;99.90;;;;;;5031091;28;20558;-66
2022/09/01 08:28:41;;;;;;;2.58;2.38;;;28.90;99.90;;;;;;5031176;28;20175;-65
2022/09/01 08:31:11;;;;;;;4.07;2.90;;;28.90;99.90;;;;;;5030869;28;20179;-65
2022/09/01 08:33:41;;;;;;;3.08;2.50;;;29.00;99.90;;;;;;5030796;28;20179;-66
2022/09/01 08:36:08;;;;;;;2.53;2.42;;;29.20;99.90;;;;;;5011380;28;20211;-66
2022/09/01 08:38:34;;;;;;;2.60;2.50;;;29.20;99.90;;;;;;5030731;28;20183;-67
2022/09/01 08:41:02;;;;;;;2.35;2.25;;;29.30;99.90;;;;;;5031105;28;20171;-65
2022/09/01 08:43:30;;;;;;;3.03;2.50;;;29.50;99.90;;;;;;5030713;28;20171;-65
2022/09/01 08:46:01;;;;;;;3.05;2.58;;;29.60;99.90;;;;;;5030990;28;20196;-65
2022/09/01 08:48:35;;;;;;;4.38;2.72;;;29.90;99.90;;;;;;5028222;28;20309;-65
2022/09/01 08:51:38;;;;;;;2.70;2.50;;;30.00;99.90;;;;;;5029715;28;20173;-65
2022/09/01 08:54:23;;;;;;;3.83;2.28;;;29.90;99.00;;;;;;5031793;28;20172;-65
2022/09/01 08:56:59;;;;;;;2.47;2.28;;;30.20;99.90;;;;;;5034773;28;20181;-65
2022/09/01 08:59:26;;;;;;;2.80;2.60;;;30.30;98.10;;;;;;5035043;28;20179;-65
2022/09/01 09:02:33;;;;;;;3.10;2.45;;;30.40;99.50;;;;;;5034415;28;20294;-66
2022/09/01 09:05:16;;;;;;;2.78;2.50;;;30.70;99.40;;;;;;5015598;28;20269;-65
2022/09/01 09:08:08;;;;;;;2.67;2.47;;;31.10;98.80;;;;;;5035409;28;20691;-67
2022/09/01 09:10:59;;;;;;;2.70;2.50;;;31.30;97.40;;;;;;5034892;28;20541;-66
2022/09/01 09:13:47;;;;;;;3.33;2.47;;;31.50;95.80;;;;;;5034635;28;20160;-65
2022/09/01 09:16:24;;;;;;;2.78;2.58;;;31.40;92.90;;;;;;5034832;28;20206;-66
2022/09/01 09:18:58;;;;;;;3.45;3.25;;;30.90;91.20;;;;;;5033734;28;20202;-65
2022/09/01 09:21:45;;;;;;;2.55;2.45;;;30.90;93.20;;;;;;5020381;28;20203;-65
2022/09/01 09:24:49;;;;;;;2.63;2.42;;;30.60;92.00;;;;;;5014596;28;20234;-66
2022/09/01 09:27:29;;;;;;;2.53;2.30;;;30.80;93.40;;;;;;5027861;28;20194;-66
2022/09/01 09:30:02;;;;;;;2.53;2.42;;;30.90;89.00;;;;;;5034716;28;20167;-66
2022/09/01 09:33:06;;;;;;;2.50;2.40;;;30.70;90.00;;;;;;5034542;28;20250;-68
2022/09/01 09:35:42;;;;;;;2.40;2.30;;;30.10;91.80;;;;;;5033744;28;20218;-65
2022/09/01 09:38:31;;;;;;;2.47;2.33;;;29.90;91.50;;;;;;5034285;28;20175;-65
2022/09/01 09:41:13;;;;;;;2.50;2.40;;;29.40;90.40;;;;;;5033659;28;20441;-66
2022/09/01 09:43:57;;;;;;;2.60;2.40;;;28.70;87.10;;;;;;5034070;28;20175;-67
2022/09/01 09:46:42;;;;;;;2.47;2.38;;;27.90;84.90;;;;;;5033855;28;20195;-67
2022/09/01 09:49:19;;;;;;;4.75;2.85;;;27.40;84.70;;;;;;5032925;28;20179;-65
2022/09/01 09:52:15;;;;;;;3.00;2.80;;;27.20;85.30;;;;;;5034226;28;20175;-65
2022/09/01 09:55:02;;;;;;;2.30;2.10;;;27.20;86.90;;;;;;5033470;28;20221;-65
2022/09/01 09:57:29;;;;;;;2.15;2.05;;;27.80;89.10;;;;;;5033789;28;20544;-67
2022/09/01 10:00:07;;;;;;;2.83;2.63;;;28.20;87.10;;;;;;5034185;28;20175;-67
2022/09/01 10:02:42;;;;;;;2.75;2.58;;;28.10;87.30;;;;;;5033546;28;20215;-68
2022/09/01 10:05:26;;;;;;;2.78;2.50;;;27.60;86.30;;;;;;5032621;28;20201;-67
2022/09/01 10:07:52;;;;;;;2.63;2.50;;;27.10;84.10;;;;;;5033600;28;20649;-67
2022/09/01 10:10:45;;;;;;;4.13;2.70;;;26.70;90.90;;;;;;5033929;28;20175;-67
2022/09/01 10:13:19;;;;;;;4.03;2.65;;;27.00;92.00;;;;;;5033905;28;20182;-67
2022/09/01 10:15:50;;;;;;;2.28;2.17;;;27.90;90.10;;;;;;5033798;28;20197;-67
2022/09/01 10:18:22;;;;;;;2.78;2.58;;;28.70;87.90;;;;;;5033150;28;20172;-66
2022/09/01 10:21:03;;;;;;;2.70;2.60;;;29.30;88.70;;;;;;5033428;28;20203;-67
2022/09/01 10:23:31;;;;;;;2.30;2.20;;;29.80;86.30;;;;;;5033365;28;20221;-68
2022/09/01 10:26:03;;;;;;;2.50;2.30;;;30.40;86.50;;;;;;5033157;28;20199;-67
2022/09/01 10:28:32;;;;;;;2.83;2.63;;;30.20;83.40;;;;;;5033709;28;20565;-67
2022/09/01 10:30:58;;;;;;;3.25;3.00;;;29.50;81.50;;;;;;5033146;28;20184;-68
2022/09/01 10:33:24;;;;;;;2.65;2.45;;;28.80;81.50;;;;;;5032926;28;20192;-68
2022/09/01 10:35:54;;;;;;;2.95;2.75;;;28.00;82.90;;;;;;5033380;28;20211;-65
2022/09/01 10:38:24;;;;;;;4.53;2.63;;;27.30;83.00;;;;;;5032923;28;20649;-65
2022/09/01 10:41:06;;;;;;;2.70;2.60;;;26.90;84.80;;;;;;5013510;28;20181;-67
2022/09/01 10:43:32;;;;;;;2.65;2.45;;;26.40;85.80;;;;;;5028589;28;20274;-67
2022/09/01 10:45:58;;;;;;;2.60;2.40;;;26.20;86.30;;;;;;5033510;28;20196;-68
2022/09/01 10:48:23;;;;;;;2.83;2.70;;;26.40;87.40;;;;;;5032828;28;20179;-66
2022/09/01 10:50:52;;;;;;;3.00;2.80;;;27.00;86.20;;;;;;5032820;28;20191;-67
2022/09/01 10:53:36;;;;;;;2.70;2.50;;;27.60;86.50;;;;;;5032655;28;20175;-67
2022/09/01 10:56:04;;;;;;;2.67;2.47;;;28.40;86.80;;;;;;5032760;28;20619;-68
2022/09/01 10:58:44;;;;;;;2.55;2.38;;;29.30;88.20;;;;;;5032740;28;20543;-67
2022/09/01 11:01:09;;;;;;;5.78;2.47;;;29.90;83.40;;;;;;5032306;28;20240;-67
2022/09/01 11:03:48;;;;;;;2.10;2.00;;;30.70;81.20;;;;;;5032144;28;20163;-66
2022/09/01 11:06:33;;;;;;;3.22;2.38;;;31.10;79.50;;;;;;5032336;28;20199;-67
2022/09/01 11:09:05;;;;;;;2.70;2.50;;;31.20;75.50;;;;;;5032486;28;20171;-68
2022/09/01 11:11:42;;;;;;;2.30;2.15;;;31.20;80.50;;;;;;5032888;28;20724;-68
2022/09/01 11:14:23;;;;;;;2.20;2.10;;;31.70;76.20;;;;;;5029956;28;20713;-67
2022/09/01 11:17:38;;;;;;;2.45;2.25;;;32.00;73.90;;;;;;5031831;28;20578;-67
2022/09/01 11:20:32;;;;;;;2.47;2.28;;;32.10;74.80;;;;;;4990754;28;20203;-66
2022/09/01 11:23:11;;;;;;;3.03;2.15;;;32.20;76.70;;;;;;4990318;28;20209;-67
2022/09/01 11:26:07;;;;;;;2.38;2.22;;;32.30;70.90;;;;;;5024372;28;20277;-67
2022/09/01 11:28:38;;;;;;;2.88;2.67;;;32.10;76.70;;;;;;5009890;28;20191;-67
2022/09/01 11:31:09;;;;;;;2.95;2.75;;;32.00;71.10;;;;;;5032268;28;20664;-72
2022/09/01 11:34:09;;;;;;;2.25;2.15;;;32.10;74.00;;;;;;5032289;28;20183;-68
2022/09/01 11:36:46;;;;;;;2.90;2.70;;;32.30;71.70;;;;;;5031918;28;20657;-67
2022/09/01 11:39:18;;;;;;;2.42;2.22;;;31.90;72.10;;;;;;5032342;28;20621;-69
2022/09/01 11:41:54;;;;;;;2.70;2.50;;;31.60;70.80;;;;;;5032145;28;20286;-68
2022/09/01 11:44:35;;;;;;;2.95;2.45;;;31.40;71.20;;;;;;5031727;28;20179;-68
2022/09/01 11:47:15;;;;;;;2.92;2.72;;;31.30;73.70;;;;;;5031154;28;20222;-68
2022/09/01 11:49:51;;;;;;;2.72;2.53;;;31.70;75.20;;;;;;5032002;28;20625;-67
2022/09/01 11:52:19;;;;;;;2.70;2.50;;;32.10;73.30;;;;;;5031736;28;20687;-67
2022/09/01 11:54:45;;;;;;;2.47;2.28;;;32.00;70.60;;;;;;5031508;28;20265;-68
2022/09/01 11:57:35;;;;;;;3.22;3.03;;;31.40;69.60;;;;;;5031639;28;20187;-67
2022/09/01 12:00:06;;;;;;;3.45;3.15;;;31.10;70.60;;;;;;5032011;28;20172;-67
2022/09/01 12:02:35;;;;;;;2.67;2.58;;;30.70;72.20;;;;;;5031519;28;20269;-67
2022/09/01 12:05:02;;;;;;;3.38;3.17;;;29.90;72.30;;;;;;5029912;28;20282;-67
2022/09/01 12:07:45;;;;;;;2.95;2.75;;;29.60;75.20;;;;;;5031938;28;20175;-67
2022/09/01 12:10:26;;;;;;;3.10;2.90;;;30.00;71.20;;;;;;5032001;28;20671;-67
2022/09/01 12:13:04;;;;;;;2.88;2.75;;;30.70;70.80;;;;;;5031738;28;20190;-67
2022/09/01 12:15:33;;;;;;;2.88;2.63;;;30.80;69.70;;;;;;5031198;28;20289;-67
2022/09/01 12:18:39;;;;;;;2.60;2.45;;;30.90;70.70;;;;;;5031734;28;20167;-66
2022/09/01 12:21:07;;;;;;;2.88;2.70;;;31.80;73.50;;;;;;4970627;28;20192;-66
2022/09/01 12:23:34;;;;;;;2.55;2.33;;;32.30;69.30;;;;;;5005063;28;20187;-68
2022/09/01 12:26:12;;;;;;;2.75;2.55;;;32.50;70.00;;;;;;5031322;28;20558;-67
2022/09/01 12:28:40;;;;;;;3.72;2.35;;;32.80;72.80;;;;;;5031178;28;20221;-66
2022/09/01 12:31:13;;;;;;;2.70;2.50;;;33.20;67.70;;;;;;5029646;28;20679;-67
2022/09/01 12:33:41;;;;;;;2.60;2.50;;;32.70;68.90;;;;;;5021881;28;20264;-67
2022/09/01 12:36:20;;;;;;;2.35;2.25;;;32.40;67.90;;;;;;5029914;28;20211;-67
2022/09/01 12:38:47;;;;;;;2.47;2.38;;;32.70;69.30;;;;;;5031294;28;20518;-67
2022/09/01 12:41:23;;;;;;;2.80;2.60;;;32.90;66.70;;;;;;5030894;28;20233;-67
2022/09/01 12:43:49;;;;;;;2.47;2.30;;;32.70;66.10;;;;;;5031256;28;20171;-67
2022/09/01 12:46:42;;;;;;;2.63;2.42;;;32.80;65.80;;;;;;5031187;28;20195;-66
2022/09/01 12:49:33;;;;;;;2.92;2.30;;;32.70;67.20;;;;;;5031144;28;20287;-68
2022/09/01 12:52:09;;;;;;;2.95;2.60;;;32.70;65.50;;;;;;5031411;28;20542;-68
2022/09/01 12:54:35;;;;;;;5.05;2.80;;;32.60;67.10;;;;;;5030788;28;20201;-67
2022/09/01 12:57:01;;;;;;;2.70;2.47;;;32.40;65.60;;;;;;5031332;28;20561;-67
2022/09/01 12:59:27;;;;;;;2.58;2.38;;;32.70;67.90;;;;;;5030849;28;20183;-66
2022/09/01 13:01:52;;;;;;;2.67;2.58;;;32.60;65.00;;;;;;5031139;28;20749;-66
2022/09/01 13:04:21;;;;;;;4.50;2.72;;;32.30;64.30;;;;;;5030477;28;20516;-68
2022/09/01 13:06:48;;;;;;;2.50;2.40;;;31.90;66.20;;;;;;5031187;28;20177;-66
2022/09/01 13:09:14;;;;;;;3.05;2.70;;;31.90;70.00;;;;;;5031014;28;20206;-66
2022/09/01 13:11:40;;;;;;;4.13;3.05;;;31.40;67.50;;;;;;5031277;28;20238;-67
2022/09/01 13:14:07;;;;;;;4.05;3.85;;;30.80;68.50;;;;;;5030870;28;20260;-66
2022/09/01 13:16:34;;;;;;;3.95;3.75;;;30.20;68.80;;;;;;5031411;28;20223;-66
2022/09/01 13:19:00;;;;;;;3.70;3.50;;;30.20;68.70;;;;;;5031557;28;20253;-67